Time;durP1;ratioP1;P1;durP2;ratioP2;P2;SDS_P1;SDS_P2;PMS_P1;PMS_P2;Temp;Humidity;BMP_temperature;BMP_pressure;BME280_temperature;BME280_humidity;BME280_pressure;Samples;Min_cycle;Max_cycle;Signal;HPM_P1;HPM_P2
2022/06/17 00:01:33;;;;;;;4.10;2.03;;;19.00;99.90;;;;;;6654634;89;20187;-79
2022/06/17 00:11:37;;;;;;;4.37;2.10;;;18.60;99.90;;;;;;6650183;89;20200;-80
2022/06/17 00:21:41;;;;;;;5.15;2.10;;;18.40;99.90;;;;;;6654678;89;20188;-80
2022/06/17 00:31:41;;;;;;;3.50;2.20;;;18.40;99.90;;;;;;6654048;89;20285;-80
2022/06/17 00:41:46;;;;;;;4.72;2.20;;;18.30;99.90;;;;;;6672546;88;20247;-80
2022/06/17 00:52:06;;;;;;;4.80;2.43;;;18.20;99.90;;;;;;6658314;89;20355;-80
2022/06/17 01:02:07;;;;;;;3.85;2.35;;;18.20;99.90;;;;;;6640315;89;20177;-81
2022/06/17 01:12:11;;;;;;;2.80;2.20;;;17.60;99.90;;;;;;6640669;89;20206;-80
2022/06/17 01:22:27;;;;;;;4.07;2.40;;;17.30;99.90;;;;;;6641086;89;20236;-80
2022/06/17 01:32:36;;;;;;;5.20;2.42;;;17.20;99.90;;;;;;6636840;89;20731;-80
2022/06/17 01:42:38;;;;;;;5.45;2.50;;;16.80;99.90;;;;;;6640526;89;20220;-80
2022/06/17 01:52:46;;;;;;;4.50;2.80;;;16.90;99.90;;;;;;6641311;89;20554;-80
2022/06/17 02:02:52;;;;;;;4.28;2.97;;;17.10;99.90;;;;;;6640866;89;20706;-80
2022/06/17 02:12:54;;;;;;;4.40;2.78;;;17.20;99.90;;;;;;6637873;89;20256;-81
2022/06/17 02:22:56;;;;;;;3.45;2.55;;;16.80;99.90;;;;;;6646118;89;20189;-80
2022/06/17 02:33:03;;;;;;;4.37;2.50;;;16.60;99.90;;;;;;6640908;89;20204;-80
2022/06/17 02:43:11;;;;;;;3.75;2.40;;;16.60;99.90;;;;;;6641517;89;20626;-81
2022/06/17 02:53:12;;;;;;;2.97;2.25;;;16.20;99.90;;;;;;6639691;89;20338;-80
2022/06/17 03:03:16;;;;;;;3.25;2.58;;;16.00;99.90;;;;;;6640261;89;20238;-80
2022/06/17 03:13:30;;;;;;;4.30;2.90;;;15.90;99.90;;;;;;6635181;89;20234;-82
2022/06/17 03:23:47;;;;;;;4.82;2.70;;;15.90;99.90;;;;;;6640349;89;20222;-80
2022/06/17 03:34:15;;;;;;;4.30;2.50;;;15.90;99.90;;;;;;6638891;89;20643;-81
2022/06/17 03:44:19;;;;;;;5.78;2.80;;;16.00;99.90;;;;;;6639690;89;20232;-80
2022/06/17 03:54:20;;;;;;;4.22;2.70;;;16.00;99.90;;;;;;6634916;89;20192;-80
2022/06/17 04:04:27;;;;;;;4.10;2.53;;;15.70;99.90;;;;;;6638537;89;20261;-80
2022/06/17 04:14:54;;;;;;;5.72;2.60;;;15.50;99.90;;;;;;6637263;89;20270;-80
2022/06/17 04:25:02;;;;;;;5.35;2.60;;;15.30;99.90;;;;;;6636564;89;20166;-81
2022/06/17 04:35:03;;;;;;;5.53;2.60;;;15.30;99.90;;;;;;6650913;89;20231;-80
2022/06/17 04:45:04;;;;;;;6.70;2.97;;;15.50;99.90;;;;;;6640490;89;20213;-81
2022/06/17 04:55:17;;;;;;;4.25;2.70;;;15.80;99.90;;;;;;6640648;89;20204;-81
2022/06/17 05:05:34;;;;;;;5.03;3.20;;;16.10;99.90;;;;;;6637957;89;20284;-81
2022/06/17 05:15:36;;;;;;;3.67;2.50;;;16.30;99.90;;;;;;6641179;88;20782;-81
2022/06/17 05:25:39;;;;;;;4.85;2.95;;;16.40;99.90;;;;;;6636689;89;20242;-81
2022/06/17 05:35:40;;;;;;;6.12;3.17;;;16.60;99.90;;;;;;6642430;89;20200;-80
2022/06/17 05:45:41;;;;;;;5.78;3.10;;;16.90;99.90;;;;;;6647462;87;20216;-82
2022/06/17 05:55:41;;;;;;;6.03;3.20;;;17.20;99.90;;;;;;6649568;89;20200;-79
2022/06/17 06:05:42;;;;;;;5.20;2.72;;;17.60;99.90;;;;;;6647583;89;20196;-80
2022/06/17 06:15:46;;;;;;;4.40;3.00;;;18.30;99.90;;;;;;6643542;89;20222;-79
2022/06/17 06:25:47;;;;;;;7.47;3.40;;;18.90;99.90;;;;;;6655112;88;20660;-78
2022/06/17 06:35:48;;;;;;;4.95;3.17;;;19.00;99.90;;;;;;6650061;88;20210;-78
2022/06/17 06:45:51;;;;;;;5.97;2.67;;;19.30;99.90;;;;;;6647136;88;20283;-77
2022/06/17 06:55:52;;;;;;;7.87;2.60;;;19.90;99.90;;;;;;6648104;88;20257;-77
2022/06/17 07:05:56;;;;;;;4.30;2.33;;;20.00;99.90;;;;;;6653327;88;20194;-76
2022/06/17 07:15:57;;;;;;;5.67;2.60;;;21.00;99.90;;;;;;6655778;88;20201;-76
2022/06/17 07:26:00;;;;;;;3.30;1.80;;;21.70;99.90;;;;;;6642332;89;20234;-77
2022/06/17 07:36:03;;;;;;;5.80;1.98;;;21.80;99.90;;;;;;6655676;88;20192;-77
2022/06/17 07:46:04;;;;;;;5.47;1.70;;;22.10;99.90;;;;;;6655205;88;20179;-77
2022/06/17 07:56:05;;;;;;;4.22;1.65;;;22.60;99.10;;;;;;6647338;88;20267;-77
2022/06/17 08:06:06;;;;;;;2.62;1.42;;;23.20;98.10;;;;;;6648828;89;20181;-77
2022/06/17 08:16:10;;;;;;;3.30;1.58;;;23.20;97.20;;;;;;6651641;89;20246;-77
2022/06/17 08:26:11;;;;;;;3.28;1.65;;;23.40;96.60;;;;;;6675718;89;20184;-76
2022/06/17 08:36:15;;;;;;;2.50;1.50;;;23.90;95.50;;;;;;6653316;89;20200;-77
2022/06/17 08:46:37;;;;;;;3.25;1.70;;;25.20;94.50;;;;;;6650380;88;20228;-77
2022/06/17 08:56:43;;;;;;;3.62;1.50;;;24.80;94.20;;;;;;6650644;88;20208;-77
2022/06/17 09:07:08;;;;;;;3.87;1.70;;;24.50;94.20;;;;;;6653057;89;20192;-78
2022/06/17 09:17:47;;;;;;;4.93;1.70;;;25.60;93.60;;;;;;6647530;89;20654;-78
2022/06/17 09:27:51;;;;;;;3.70;1.58;;;25.70;93.00;;;;;;6647081;89;20275;-77
2022/06/17 09:38:05;;;;;;;2.35;1.42;;;25.80;90.60;;;;;;6655854;89;20202;-80
2022/06/17 09:48:16;;;;;;;;;;;25.80;90.70;;;;;;6653991;89;20214;-81
2022/06/17 09:58:38;;;;;;;3.37;1.40;;;25.50;90.50;;;;;;6648953;89;20083;-80
2022/06/17 10:09:05;;;;;;;5.70;1.35;;;26.90;89.30;;;;;;6647149;89;20213;-79
2022/06/17 10:19:13;;;;;;;3.80;1.58;;;26.50;87.00;;;;;;6645405;88;20710;-79
2022/06/17 10:29:19;;;;;;;6.68;1.90;;;27.40;88.10;;;;;;6666877;88;20296;-77
2022/06/17 10:39:23;;;;;;;4.20;1.48;;;26.90;89.10;;;;;;6649528;89;20197;-79
2022/06/17 10:49:35;;;;;;;5.35;1.62;;;26.90;89.50;;;;;;6655850;89;20248;-80
2022/06/17 10:59:41;;;;;;;4.60;1.65;;;27.30;90.70;;;;;;6649563;88;20708;-79
2022/06/17 11:10:13;;;;;;;4.70;1.60;;;27.70;88.20;;;;;;6657270;89;20280;-80
2022/06/17 11:20:20;;;;;;;6.68;1.60;;;29.10;86.80;;;;;;6658172;88;20945;-79
2022/06/17 11:30:26;;;;;;;6.25;1.70;;;28.30;86.60;;;;;;6657675;88;20623;-80
2022/06/17 11:40:33;;;;;;;5.18;1.80;;;29.00;87.10;;;;;;6672548;88;20180;-81
2022/06/17 11:50:37;;;;;;;5.12;1.70;;;30.10;85.00;;;;;;6664200;88;20675;-83
2022/06/17 12:00:51;;;;;;;2.65;1.65;;;29.60;85.00;;;;;;6664230;88;20860;-80
2022/06/17 12:10:55;;;;;;;6.12;1.50;;;30.20;81.90;;;;;;6666220;88;20774;-78
2022/06/17 12:21:14;;;;;;;6.93;1.58;;;29.90;82.10;;;;;;6661419;78;20225;-79
2022/06/17 12:31:50;;;;;;;4.62;1.50;;;30.60;79.80;;;;;;6663072;88;20192;-79
2022/06/17 12:42:02;;;;;;;3.08;1.40;;;30.80;79.60;;;;;;6699292;88;20272;-78
2022/06/17 13:03:32;;;;;;;3.37;1.40;;;31.20;77.10;;;;;;6619572;89;20256;-79
2022/06/17 13:13:51;;;;;;;4.65;1.25;;;31.30;75.40;;;;;;6607198;89;20205;-78
2022/06/17 13:24:01;;;;;;;2.70;1.30;;;33.10;71.70;;;;;;6620805;89;20190;-78
2022/06/17 13:34:16;;;;;;;2.03;1.00;;;33.30;71.80;;;;;;6648772;89;20176;-78
2022/06/17 13:44:45;;;;;;;2.12;1.10;;;32.90;69.60;;;;;;6655895;89;20234;-78
2022/06/17 13:54:55;;;;;;;4.32;1.10;;;33.10;68.60;;;;;;6657520;89;20274;-79
2022/06/17 14:04:59;;;;;;;3.28;1.20;;;32.30;68.00;;;;;;6622542;89;20204;-79
2022/06/17 14:15:05;;;;;;;1.65;1.00;;;33.70;66.90;;;;;;6621670;89;20199;-77
2022/06/17 14:25:09;;;;;;;2.35;1.35;;;34.60;65.90;;;;;;6618941;89;20327;-79
2022/06/17 14:35:26;;;;;;;1.73;0.90;;;32.40;66.20;;;;;;6621799;89;20755;-79
2022/06/17 14:45:47;;;;;;;2.35;1.37;;;33.70;66.00;;;;;;6617450;89;20222;-77
2022/06/17 14:56:15;;;;;;;2.00;1.00;;;33.70;64.30;;;;;;6619465;89;20185;-78
2022/06/17 15:06:15;;;;;;;3.75;1.50;;;33.90;64.60;;;;;;6618946;89;20386;-77
2022/06/17 15:16:25;;;;;;;1.98;1.00;;;35.40;62.30;;;;;;6618105;89;20204;-77
2022/06/17 15:26:45;;;;;;;1.70;0.90;;;33.80;63.30;;;;;;6617651;89;20234;-77
2022/06/17 15:36:54;;;;;;;2.12;1.00;;;34.30;61.80;;;;;;6641546;89;20200;-81
2022/06/17 15:47:18;;;;;;;1.25;0.80;;;34.70;61.80;;;;;;6646541;88;20190;-78
2022/06/17 15:57:27;;;;;;;2.92;1.15;;;33.80;60.20;;;;;;6722880;88;20201;-78
2022/06/17 16:07:28;;;;;;;2.25;0.95;;;34.10;60.50;;;;;;6650137;89;20196;-79
2022/06/17 16:17:32;;;;;;;3.08;1.20;;;33.90;58.80;;;;;;6623227;89;20233;-78
2022/06/17 16:27:54;;;;;;;1.73;0.93;;;33.30;60.30;;;;;;6629349;89;20219;-79
2022/06/17 16:37:55;;;;;;;1.67;0.90;;;33.00;60.40;;;;;;6623662;89;20207;-78
2022/06/17 16:48:00;;;;;;;3.33;1.10;;;32.70;60.20;;;;;;6625241;89;20188;-79
2022/06/17 16:58:01;;;;;;;1.80;0.90;;;32.40;60.90;;;;;;6646213;89;20221;-78
2022/06/17 17:08:02;;;;;;;2.20;0.90;;;32.40;62.00;;;;;;6639625;89;20634;-78
2022/06/17 17:18:03;;;;;;;2.50;0.83;;;32.90;61.10;;;;;;6638148;89;20725;-78
2022/06/17 17:28:04;;;;;;;2.03;1.00;;;33.20;60.80;;;;;;6639426;89;20231;-78
2022/06/17 17:38:05;;;;;;;2.37;1.10;;;32.20;62.00;;;;;;6635166;89;20246;-77
2022/06/17 17:48:07;;;;;;;1.65;1.10;;;31.90;63.70;;;;;;6670248;88;20272;-79
2022/06/17 17:58:07;;;;;;;2.08;1.10;;;33.10;64.10;;;;;;6654512;89;20187;-78
2022/06/17 18:08:08;;;;;;;2.00;1.20;;;33.60;64.40;;;;;;6655098;89;20207;-78
2022/06/17 18:18:16;;;;;;;3.80;1.30;;;32.30;65.10;;;;;;6653880;89;20212;-79
2022/06/17 18:28:17;;;;;;;3.97;1.62;;;33.10;66.30;;;;;;6667465;88;20186;-80
2022/06/17 18:38:18;;;;;;;3.63;1.30;;;32.80;65.80;;;;;;6654309;88;20222;-79
2022/06/17 18:48:23;;;;;;;2.42;1.37;;;31.50;67.00;;;;;;6652452;89;20209;-79
2022/06/17 18:58:23;;;;;;;1.98;1.27;;;31.00;68.90;;;;;;6654583;89;20209;-79
2022/06/17 19:18:48;;;;;;;2.73;1.30;;;29.50;71.70;;;;;;6633500;89;20218;-78
2022/06/17 19:28:50;;;;;;;2.37;1.30;;;28.90;71.30;;;;;;6651226;88;20237;-79
2022/06/17 19:38:53;;;;;;;1.40;1.00;;;28.40;71.60;;;;;;6642720;89;20270;-79
2022/06/17 19:48:54;;;;;;;4.22;1.70;;;28.20;71.50;;;;;;6648783;89;21214;-79
2022/06/17 19:58:58;;;;;;;3.30;1.40;;;27.90;72.00;;;;;;6651338;89;20212;-79
2022/06/17 20:08:58;;;;;;;2.87;1.48;;;27.50;72.30;;;;;;6647220;88;20259;-79
2022/06/17 20:19:00;;;;;;;2.40;1.23;;;27.30;72.30;;;;;;6681067;88;20192;-78
2022/06/17 20:29:01;;;;;;;2.95;1.20;;;27.20;72.10;;;;;;6654574;89;20279;-79
2022/06/17 20:39:04;;;;;;;2.10;1.20;;;27.00;72.50;;;;;;6659535;89;20248;-78
2022/06/17 20:59:44;;;;;;;4.15;1.12;;;26.60;73.30;;;;;;6597923;89;20548;-78
2022/06/17 21:09:46;;;;;;;3.65;1.40;;;26.40;74.50;;;;;;6619055;89;20247;-78
2022/06/17 21:19:47;;;;;;;2.55;1.20;;;26.20;75.00;;;;;;6623472;89;20276;-79
2022/06/17 21:29:47;;;;;;;2.80;1.20;;;26.00;75.70;;;;;;6624687;89;20218;-80
2022/06/17 21:39:48;;;;;;;2.95;1.80;;;25.90;76.50;;;;;;6625728;89;20281;-78
2022/06/17 21:49:49;;;;;;;3.80;2.00;;;25.60;81.30;;;;;;6627286;89;20667;-79
2022/06/17 21:59:52;;;;;;;3.35;1.95;;;25.30;83.20;;;;;;6621862;89;20209;-78
2022/06/17 22:09:53;;;;;;;4.97;2.20;;;24.90;85.30;;;;;;6618710;89;20201;-78
2022/06/17 22:19:53;;;;;;;5.75;1.70;;;24.70;86.60;;;;;;6617144;89;20765;-79
2022/06/17 22:29:54;;;;;;;2.85;1.80;;;24.40;87.20;;;;;;6619856;89;20223;-79
2022/06/17 22:39:54;;;;;;;5.78;2.67;;;24.00;88.80;;;;;;6626795;89;20201;-77
2022/06/17 22:49:58;;;;;;;5.78;2.30;;;23.80;90.30;;;;;;6624926;89;20637;-79
2022/06/17 22:59:58;;;;;;;4.30;2.20;;;23.60;90.80;;;;;;6627397;89;20251;-79
2022/06/17 23:09:59;;;;;;;4.35;1.95;;;23.40;91.30;;;;;;6627937;89;20177;-79
2022/06/17 23:20:02;;;;;;;5.28;1.87;;;23.20;91.90;;;;;;6626177;89;20205;-79
2022/06/17 23:30:03;;;;;;;4.90;1.83;;;23.00;92.20;;;;;;6622886;89;20277;-78
2022/06/17 23:40:15;;;;;;;4.07;1.75;;;22.90;92.00;;;;;;6629131;89;20176;-79
2022/06/17 23:50:46;;;;;;;2.62;1.50;;;22.90;92.20;;;;;;6635420;88;20234;-78
